Harwood, ND

3:59 PM CST on December 08, 2016 (GMT -0600)
Harwood Triangle | | Change Station

Elev 879 ft 46.98 °N, 96.88 °W | Updated 10 minutes ago

Snow
Snow
12.7 °F
Feels Like 2 °F
N
7.0
Wind Variable Wind from West
Gusts 10.0 mph

Today
High -- | Low -- °F
--% Chance of Precip.
Yesterday
High -- | Low -- °F
Precip. -- in
Pressure 30.63 in
Visibility 2.5 miles
Clouds Few 1100 ft
Overcast 2100 ft
Windchill 2 °F
Dew Point 8 °F
Humidity 82%
Rainfall 0.00 in
Snow Depth Not available.
8:00 AM 4:38 PM
Waxing Gibbous, 67% visible
METAR KFAR 082153Z 31014KT 2 1/2SM -SN FEW011 OVC021 M09/M13 A3057 RMK AO2 SLP373 P0000 T10941133
Pressure 30.63 in
Visibility 2.5 miles
Clouds Few 1100 ft
Overcast 2100 ft
Windchill 2 °F
Dew Point 8 °F
Humidity 82%
Rainfall 0.00 in
Snow Depth Not available.
8:00 AM 4:38 PM
Waxing Gibbous, 67% visible
METAR KFAR 082153Z 31014KT 2 1/2SM -SN FEW011 OVC021 M09/M13 A3057 RMK AO2 SLP373 P0000 T10941133

10-Day Weather Forecast

Almanac

Astronomy

Dec. 08, 2016 Rise Set
Actual Time
Civil Twilight
Nautical Twilight
Astronomical Twilight
Moon
Length of Visible Light
Length of Day
Tomorrow will be .
, % of the Moon is Illuminated

Today's Extremes

State Highs State Lows

Community

WunderPhotos

Upload Photos

1,956,277 photos uploaded!

WunderBlog® & News

Nearby

Air Quality

  Air Quality AQ Index Pollutant
Not available.

Snow Depth

Station Depth Elevation

Earthquake Activity

City Distance Mag. Time & Date
Minimum magnitude displayed is 2.5.

Coastal Water Temperatures

Place Temperature

Stations

Nearby Weather Stations

Station Location Temp. Windchill Dew Point Humidity Wind Precip. Elev Updated Type
                   

Watches & Warnings

There are currently no watches in effect.